Time;durP1;ratioP1;P1;durP2;ratioP2;P2;SDS_P1;SDS_P2;PMS_P1;PMS_P2;Temp;Humidity;BMP_temperature;BMP_pressure;BME280_temperature;BME280_humidity;BME280_pressure;Samples;Min_cycle;Max_cycle;Signal;HPM_P1;HPM_P2
2022/01/01 00:01:43;;;;;;;5.50;4.30;;;;;;;10.92;91.95;99878.71;87784;1283;81126;-63
2022/01/01 00:03:52;;;;;;;6.50;4.10;;;;;;;10.88;91.99;99880.91;87821;1283;99108;-65
2022/01/01 00:05:58;;;;;;;6.30;4.20;;;;;;;10.86;92.15;99883.20;87841;1283;88307;-66
2022/01/01 00:08:08;;;;;;;5.30;3.70;;;;;;;10.84;92.05;99884.94;87794;1282;95098;-63
2022/01/01 00:10:19;;;;;;;5.10;3.70;;;;;;;10.83;92.13;99891.88;87806;1283;81708;-64
2022/01/01 00:12:28;;;;;;;5.40;4.00;;;;;;;10.86;92.20;99892.97;87824;1283;81736;-64
2022/01/01 00:14:37;;;;;;;5.20;3.90;;;;;;;10.83;92.27;99893.05;87787;1283;98377;-64
2022/01/01 00:16:46;;;;;;;4.20;3.50;;;;;;;10.84;92.36;99895.95;87606;1284;87949;-65
2022/01/01 00:18:57;;;;;;;5.10;3.70;;;;;;;10.84;92.47;99899.48;87771;1283;94717;-68
2022/01/01 00:21:03;;;;;;;5.70;3.70;;;;;;;10.82;92.48;99904.81;87797;1283;80330;-65
2022/01/01 00:23:09;;;;;;;6.40;3.40;;;;;;;10.87;92.50;99905.73;87808;1283;80674;-64
2022/01/01 00:25:18;;;;;;;5.80;3.70;;;;;;;10.89;92.58;99907.62;87796;1283;98811;-65
2022/01/01 00:27:24;;;;;;;6.10;3.90;;;;;;;10.86;92.49;99912.42;87800;1283;88189;-65
2022/01/01 00:29:30;;;;;;;6.10;4.10;;;;;;;10.88;92.57;99920.25;87804;1283;95737;-67
2022/01/01 00:31:37;;;;;;;6.20;4.00;;;;;;;10.94;92.53;99922.10;87785;1283;80885;-62
2022/01/01 00:33:46;;;;;;;6.00;4.10;;;;;;;10.94;92.52;99925.42;87818;1283;83432;-63
2022/01/01 00:35:52;;;;;;;6.50;4.40;;;;;;;10.93;92.65;99926.62;87783;1283;97776;-65
2022/01/01 00:37:58;;;;;;;7.80;4.40;;;;;;;10.94;92.55;99929.70;87796;1283;89199;-65
2022/01/01 00:40:05;;;;;;;5.70;4.40;;;;;;;10.91;92.61;99931.48;87814;1283;95742;-65
2022/01/01 00:42:12;;;;;;;6.60;4.60;;;;;;;10.93;92.49;99935.44;87812;1283;80436;-66
2022/01/01 00:44:18;;;;;;;5.70;4.00;;;;;;;10.93;92.60;99939.30;87818;1283;81430;-65
2022/01/01 00:46:25;;;;;;;5.70;4.40;;;;;;;10.91;92.58;99939.63;87780;1283;99901;-65
2022/01/01 00:48:32;;;;;;;5.60;4.10;;;;;;;10.91;92.57;99949.44;87801;1283;87763;-66
2022/01/01 00:50:37;;;;;;;6.60;3.90;;;;;;;10.94;92.48;99950.27;87762;1282;95200;-68
2022/01/01 00:52:47;;;;;;;5.70;4.20;;;;;;;10.98;92.45;99956.01;87768;1283;80339;-66
2022/01/01 00:54:57;;;;;;;5.10;3.80;;;;;;;11.00;92.53;99959.46;87793;1283;82035;-63
2022/01/01 00:57:07;;;;;;;5.70;3.80;;;;;;;11.03;92.36;99960.92;87796;1283;99862;-64
2022/01/01 00:59:15;;;;;;;5.30;4.30;;;;;;;11.02;92.35;99965.67;87808;1283;89018;-63
2022/01/01 01:01:22;;;;;;;5.70;4.40;;;;;;;10.95;92.27;99967.95;87811;1283;95983;-68
2022/01/01 01:03:28;;;;;;;5.40;4.50;;;;;;;10.90;92.33;99974.67;87779;1283;77699;-63
2022/01/01 01:05:39;;;;;;;5.40;4.00;;;;;;;10.90;92.25;99979.00;87812;1283;82079;-64
2022/01/01 01:07:45;;;;;;;6.20;4.40;;;;;;;10.85;92.11;99984.71;87808;1283;98564;-65
2022/01/01 01:09:52;;;;;;;4.80;3.90;;;;;;;10.82;92.27;99993.81;87811;1282;87750;-65
2022/01/01 01:11:59;;;;;;;6.10;3.90;;;;;;;10.81;92.17;99996.30;87819;1282;95691;-67
2022/01/01 01:14:08;;;;;;;5.00;3.90;;;;;;;10.73;92.19;99997.85;87551;1284;81946;-67
2022/01/01 01:16:14;;;;;;;4.10;3.00;;;;;;;10.72;92.19;99999.99;87707;1283;80118;-65
2022/01/01 01:18:20;;;;;;;6.00;3.00;;;;;;;10.72;92.19;100002.39;87569;1284;98776;-63
2022/01/01 01:20:28;;;;;;;4.10;3.10;;;;;;;10.74;92.28;100004.06;87694;1283;87745;-63
2022/01/01 01:22:35;;;;;;;4.80;3.60;;;;;;;10.79;92.34;100005.21;87741;1283;95945;-67
2022/01/01 01:24:42;;;;;;;3.80;3.10;;;;;;;10.81;92.15;100004.52;87684;1283;81281;-65
2022/01/01 01:26:54;;;;;;;4.40;3.20;;;;;;;10.80;92.15;100004.77;87746;1283;81775;-64
2022/01/01 01:29:03;;;;;;;7.30;4.10;;;;;;;10.75;92.11;100006.45;87685;1283;100511;-65
2022/01/01 01:31:12;;;;;;;7.90;4.50;;;;;;;10.73;92.01;100007.98;87538;1284;88542;-66
2022/01/01 01:33:22;;;;;;;6.70;4.40;;;;;;;10.71;92.06;100010.02;87717;1283;95863;-65
2022/01/01 01:35:28;;;;;;;5.10;3.50;;;;;;;10.72;91.92;100016.58;87681;1283;80671;-65
2022/01/01 01:37:34;;;;;;;6.40;3.50;;;;;;;10.69;91.88;100017.10;87722;1283;83601;-66
2022/01/01 01:39:42;;;;;;;5.50;3.60;;;;;;;10.66;91.83;100017.08;87717;1283;98767;-65
2022/01/01 01:41:52;;;;;;;5.20;3.60;;;;;;;10.58;91.85;100015.50;87704;1283;88128;-66
2022/01/01 01:44:02;;;;;;;5.10;3.50;;;;;;;10.60;91.79;100021.04;87686;1283;94074;-65
2022/01/01 01:46:12;;;;;;;5.00;3.10;;;;;;;10.62;91.88;100019.80;87722;1283;81563;-67
2022/01/01 01:48:22;;;;;;;5.40;3.60;;;;;;;10.56;91.91;100023.46;87713;1283;82962;-66
2022/01/01 01:50:30;;;;;;;5.60;3.80;;;;;;;10.49;91.99;100024.37;87727;1283;98709;-66
2022/01/01 01:52:43;;;;;;;5.30;3.70;;;;;;;10.55;91.93;100028.89;87487;1284;89459;-66
2022/01/01 01:54:52;;;;;;;8.90;4.90;;;;;;;10.57;91.97;100026.13;87667;1283;94032;-65
2022/01/01 01:56:58;;;;;;;10.00;5.30;;;;;;;10.54;91.94;100027.31;87716;1283;79512;-65
2022/01/01 01:59:05;;;;;;;8.10;4.40;;;;;;;10.54;91.90;100026.98;87732;1284;79857;-66
2022/01/01 02:01:23;;;;;;;6.60;3.80;;;;;;;10.59;91.98;100026.52;87708;1284;99681;-66
2022/01/01 02:03:29;;;;;;;9.20;5.70;;;;;;;10.61;91.89;100031.10;87707;1283;88079;-65
2022/01/01 02:05:38;;;;;;;8.80;5.00;;;;;;;10.55;91.81;100026.95;87720;1284;92744;-65
2022/01/01 02:07:45;;;;;;;8.90;5.60;;;;;;;10.54;91.84;100026.32;87673;1284;81595;-65
2022/01/01 02:09:55;;;;;;;8.40;4.90;;;;;;;10.51;91.78;100032.27;87720;1283;83083;-65
2022/01/01 02:12:02;;;;;;;7.10;4.70;;;;;;;10.44;91.92;100038.29;87692;1283;100436;-66
2022/01/01 02:14:17;;;;;;;5.80;4.00;;;;;;;10.47;91.89;100037.86;87693;1283;88596;-66
2022/01/01 02:16:33;;;;;;;6.70;4.30;;;;;;;10.49;91.89;100034.97;87732;1283;93873;-64
2022/01/01 02:18:42;;;;;;;6.40;4.40;;;;;;;10.46;91.87;100038.33;87674;1283;80813;-67
2022/01/01 02:20:51;;;;;;;7.40;4.80;;;;;;;10.38;91.86;100033.48;87588;1284;82373;-66
2022/01/01 02:23:00;;;;;;;9.30;5.00;;;;;;;10.32;91.86;100029.73;87715;1283;98346;-67
2022/01/01 02:25:08;;;;;;;8.80;4.90;;;;;;;10.35;91.85;100041.09;87692;1283;89794;-66
2022/01/01 02:27:13;;;;;;;8.70;5.10;;;;;;;10.31;91.78;100052.70;87684;1283;94117;-67
2022/01/01 02:29:20;;;;;;;7.00;4.00;;;;;;;10.27;91.76;100055.45;87621;1284;79798;-67
2022/01/01 02:31:31;;;;;;;8.00;4.90;;;;;;;10.27;91.62;100054.99;87677;1283;81343;-65
2022/01/01 02:33:40;;;;;;;7.20;4.20;;;;;;;10.25;91.64;100050.82;87669;1283;100447;-66
2022/01/01 02:35:47;;;;;;;8.60;4.50;;;;;;;10.25;91.61;100056.77;87685;1283;88667;-67
2022/01/01 02:37:54;;;;;;;8.40;5.50;;;;;;;10.22;91.58;100053.01;87676;1283;94885;-65
2022/01/01 02:40:04;;;;;;;9.10;6.00;;;;;;;10.17;91.67;100058.45;87694;1283;81413;-64
2022/01/01 02:42:11;;;;;;;10.60;5.10;;;;;;;10.14;91.54;100064.44;87597;1284;81012;-67
2022/01/01 02:44:23;;;;;;;8.60;4.60;;;;;;;10.09;91.65;100067.42;87636;1284;99568;-66
2022/01/01 02:46:28;;;;;;;7.10;4.80;;;;;;;10.06;91.61;100074.75;87815;1283;88972;-64
2022/01/01 02:48:34;;;;;;;5.10;4.10;;;;;;;10.12;91.64;100066.55;87810;1283;95821;-64
2022/01/01 02:50:40;;;;;;;6.90;4.40;;;;;;;10.05;91.80;100065.13;87606;1284;79376;-64
2022/01/01 02:52:47;;;;;;;5.90;4.20;;;;;;;9.97;91.89;100068.57;87667;1283;82970;-66
2022/01/01 02:54:53;;;;;;;7.00;4.60;;;;;;;9.91;91.76;100066.56;87816;1283;99683;-68
2022/01/01 02:56:59;;;;;;;5.40;4.30;;;;;;;9.86;91.78;100070.79;87812;1283;89296;-69
2022/01/01 02:59:05;;;;;;;6.80;4.60;;;;;;;9.85;91.85;100077.09;87808;1283;94734;-64
2022/01/01 03:01:11;;;;;;;7.20;4.50;;;;;;;9.85;91.96;100080.31;87810;1283;81424;-67
2022/01/01 03:03:17;;;;;;;6.30;4.10;;;;;;;9.81;92.12;100072.23;87810;1283;80895;-65
2022/01/01 03:05:23;;;;;;;5.50;4.30;;;;;;;9.76;92.17;100074.14;87820;1282;99605;-65
2022/01/01 03:07:29;;;;;;;5.80;4.30;;;;;;;9.78;92.17;100087.19;87844;1283;89539;-66
2022/01/01 03:09:35;;;;;;;5.30;4.10;;;;;;;9.79;92.07;100094.42;87839;1283;96041;-66
2022/01/01 03:11:41;;;;;;;6.20;4.30;;;;;;;9.79;92.17;100097.08;87692;1283;78902;-65
2022/01/01 03:13:48;;;;;;;6.00;4.30;;;;;;;9.81;92.06;100093.28;87859;1283;80552;-65
2022/01/01 03:15:53;;;;;;;6.50;4.50;;;;;;;9.84;92.12;100097.55;87847;1283;100227;-64
2022/01/01 03:18:02;;;;;;;5.50;4.50;;;;;;;9.81;92.25;100094.31;87813;1282;88735;-65
2022/01/01 03:20:11;;;;;;;5.50;4.30;;;;;;;9.80;92.22;100097.50;87805;1282;95197;-65
2022/01/01 03:22:17;;;;;;;5.00;3.80;;;;;;;9.82;92.15;100104.99;87827;1283;80221;-64
2022/01/01 03:24:24;;;;;;;7.30;4.00;;;;;;;9.81;92.14;100108.92;87819;1283;81318;-64
2022/01/01 03:26:29;;;;;;;5.30;3.80;;;;;;;9.79;92.18;100109.99;87836;1283;100399;-63
2022/01/01 03:28:38;;;;;;;5.90;4.40;;;;;;;9.77;92.05;100106.05;87845;1283;85640;-64
2022/01/01 03:30:44;;;;;;;8.40;5.00;;;;;;;9.76;92.04;100111.11;87818;1283;93914;-64
2022/01/01 03:32:52;;;;;;;7.20;3.90;;;;;;;9.75;92.16;100106.79;87819;1283;81317;-64
2022/01/01 03:34:58;;;;;;;5.50;3.60;;;;;;;9.72;92.13;100104.11;87783;1283;83627;-65
2022/01/01 03:37:04;;;;;;;4.50;3.30;;;;;;;9.73;92.14;100104.75;87817;1283;99961;-65
2022/01/01 03:39:10;;;;;;;4.80;3.80;;;;;;;9.74;92.11;100113.00;87809;1283;88699;-66
2022/01/01 03:41:18;;;;;;;4.40;3.10;;;;;;;9.71;92.13;100119.33;87817;1283;95440;-65
2022/01/01 03:43:27;;;;;;;4.90;3.10;;;;;;;9.67;92.13;100115.58;87807;1283;80763;-65
2022/01/01 03:45:33;;;;;;;4.70;3.00;;;;;;;9.63;92.14;100119.52;87793;1283;82805;-64
2022/01/01 03:47:39;;;;;;;3.50;2.50;;;;;;;9.63;92.17;100120.31;87796;1283;99834;-66
2022/01/01 03:49:49;;;;;;;4.20;2.50;;;;;;;9.67;92.10;100123.65;87799;1283;89526;-66
2022/01/01 03:51:55;;;;;;;4.10;2.30;;;;;;;9.65;92.03;100133.92;87794;1283;95546;-66
2022/01/01 03:54:00;;;;;;;3.20;2.40;;;;;;;9.66;92.01;100143.61;87800;1283;79860;-65
2022/01/01 03:56:07;;;;;;;3.40;2.20;;;;;;;9.62;92.16;100151.57;87787;1283;82587;-65
2022/01/01 03:58:16;;;;;;;3.20;2.40;;;;;;;9.64;92.14;100156.77;87634;1284;100020;-65
2022/01/01 04:00:22;;;;;;;3.50;2.50;;;;;;;9.66;92.11;100157.14;87684;1284;89743;-65
2022/01/01 04:02:28;;;;;;;3.30;2.30;;;;;;;9.67;92.03;100159.89;87563;1283;285087;-65
2022/01/01 04:04:33;;;;;;;3.90;2.30;;;;;;;9.64;92.02;100163.58;87791;1283;81978;-65
2022/01/01 04:06:39;;;;;;;5.10;2.30;;;;;;;9.62;91.99;100166.92;87789;1283;80440;-66
2022/01/01 04:08:44;;;;;;;3.60;2.30;;;;;;;9.57;91.90;100168.10;87794;1283;100349;-66
2022/01/01 04:10:50;;;;;;;4.60;2.30;;;;;;;9.58;91.93;100171.15;87795;1282;89118;-67
2022/01/01 04:12:56;;;;;;;3.40;2.50;;;;;;;9.60;91.90;100170.95;87761;1283;93852;-67
2022/01/01 04:15:03;;;;;;;4.70;2.40;;;;;;;9.62;91.88;100165.77;87788;1283;79718;-66
2022/01/01 04:17:10;;;;;;;3.50;2.20;;;;;;;9.59;91.83;100175.52;87839;1283;82325;-64
2022/01/01 04:19:16;;;;;;;3.00;2.40;;;;;;;9.60;91.87;100182.17;87789;1283;98471;-64
2022/01/01 04:21:24;;;;;;;3.40;2.30;;;;;;;9.61;91.76;100187.73;87825;1283;88557;-64
2022/01/01 04:23:30;;;;;;;4.40;2.60;;;;;;;9.56;91.76;100185.90;87784;1283;94128;-64
2022/01/01 04:25:36;;;;;;;3.40;2.60;;;;;;;9.48;91.83;100185.12;87811;1283;79614;-65
2022/01/01 04:27:42;;;;;;;3.70;2.20;;;;;;;9.46;91.75;100189.36;87620;1284;82826;-65
2022/01/01 04:29:47;;;;;;;3.80;2.60;;;;;;;9.41;91.66;100181.26;87661;1283;98161;-67
2022/01/01 04:31:56;;;;;;;3.40;2.40;;;;;;;9.40;91.72;100184.88;87702;1283;89147;-64
2022/01/01 04:34:02;;;;;;;4.60;2.60;;;;;;;9.41;91.74;100185.83;87809;1283;94392;-64
2022/01/01 04:36:11;;;;;;;7.40;4.00;;;;;;;9.42;91.73;100181.94;87804;1283;81534;-65
2022/01/01 04:38:35;;;;;;;6.50;4.20;;;;;;;9.42;91.85;100178.90;87838;1283;81230;-64
2022/01/01 04:40:41;;;;;;;8.80;4.10;;;;;;;9.46;91.86;100179.58;87827;1283;99684;-64
2022/01/01 04:42:51;;;;;;;5.60;2.80;;;;;;;9.50;91.78;100180.52;87828;1283;87246;-68
2022/01/01 04:44:58;;;;;;;3.50;2.20;;;;;;;9.53;91.67;100185.31;87801;1283;94188;-66
2022/01/01 04:47:09;;;;;;;4.20;2.20;;;;;;;9.48;91.70;100186.27;87822;1283;78356;-66
2022/01/01 04:49:15;;;;;;;4.20;2.50;;;;;;;9.46;91.66;100195.64;87795;1283;82741;-68
2022/01/01 04:51:24;;;;;;;3.50;2.30;;;;;;;9.43;91.52;100200.24;87831;1283;99637;-64
2022/01/01 04:53:31;;;;;;;3.10;2.20;;;;;;;9.41;91.48;100204.73;87820;1283;88517;-67
2022/01/01 04:55:41;;;;;;;3.20;2.10;;;;;;;9.36;91.44;100209.85;87821;1283;95927;-66
2022/01/01 04:57:48;;;;;;;4.00;2.90;;;;;;;9.34;91.35;100217.55;87809;1283;80023;-65
2022/01/01 04:59:58;;;;;;;2.30;1.60;;;;;;;9.30;91.43;100221.10;87806;1282;82361;-65
2022/01/01 05:02:05;;;;;;;3.20;2.00;;;;;;;9.31;91.46;100218.85;87780;1283;99442;-66
2022/01/01 05:04:12;;;;;;;3.80;2.10;;;;;;;9.29;91.42;100221.48;87832;1283;86915;-64
2022/01/01 05:06:21;;;;;;;2.60;2.00;;;;;;;9.24;91.40;100218.29;87807;1283;95622;-65
2022/01/01 05:08:27;;;;;;;2.50;1.50;;;;;;;9.22;91.39;100223.03;87800;1283;82111;-65
2022/01/01 05:10:34;;;;;;;3.00;1.40;;;;;;;9.25;91.44;100237.09;87859;1283;83012;-66
2022/01/01 05:12:44;;;;;;;2.20;1.50;;;;;;;9.28;91.33;100233.69;87809;1283;99339;-67
2022/01/01 05:14:50;;;;;;;2.50;1.60;;;;;;;9.24;91.15;100238.11;87829;1283;88819;-64
2022/01/01 05:16:56;;;;;;;2.60;1.60;;;;;;;9.23;91.08;100235.08;87799;1282;95696;-65
2022/01/01 05:19:06;;;;;;;2.70;1.30;;;;;;;9.25;91.01;100240.29;87804;1283;81305;-64
2022/01/01 05:21:16;;;;;;;2.30;1.40;;;;;;;9.23;90.85;100249.30;87836;1283;81596;-65
2022/01/01 05:23:24;;;;;;;2.30;1.40;;;;;;;9.19;90.90;100256.62;87802;1283;100233;-66
2022/01/01 05:25:34;;;;;;;1.90;1.20;;;;;;;9.18;90.82;100258.41;87820;1283;88720;-66
2022/01/01 05:27:44;;;;;;;2.30;1.30;;;;;;;9.18;90.88;100258.72;87823;1283;93946;-66
2022/01/01 05:29:49;;;;;;;3.20;1.90;;;;;;;9.18;90.75;100266.83;87830;1283;80549;-66
2022/01/01 05:31:58;;;;;;;2.90;1.40;;;;;;;9.22;90.81;100270.14;87639;1282;83235;-68
2022/01/01 05:34:05;;;;;;;4.40;1.50;;;;;;;9.18;90.84;100273.84;87686;1283;98574;-67
2022/01/01 05:36:14;;;;;;;4.10;2.10;;;;;;;9.13;90.83;100277.33;87834;1283;89664;-67
2022/01/01 05:38:22;;;;;;;4.20;2.60;;;;;;;9.10;90.86;100282.59;87824;1283;94724;-66
2022/01/01 05:40:30;;;;;;;3.90;2.60;;;;;;;9.04;90.92;100286.19;87819;1283;79324;-65
2022/01/01 05:42:35;;;;;;;3.80;2.50;;;;;;;8.99;90.97;100285.67;87812;1283;82146;-64
2022/01/01 05:44:44;;;;;;;3.50;2.20;;;;;;;8.97;90.97;100291.65;87821;1283;100190;-64
2022/01/01 05:46:51;;;;;;;4.80;2.70;;;;;;;8.91;90.96;100298.27;87450;1285;88153;-66
2022/01/01 05:48:56;;;;;;;3.30;2.30;;;;;;;8.94;90.89;100297.25;87619;1284;94579;-64
2022/01/01 05:51:03;;;;;;;4.20;2.70;;;;;;;8.99;90.88;100299.36;87846;1283;81497;-68
2022/01/01 05:53:09;;;;;;;3.60;2.50;;;;;;;8.99;90.95;100297.20;87838;1283;81276;-65
2022/01/01 05:55:18;;;;;;;3.70;2.20;;;;;;;9.00;90.99;100303.55;87818;1283;98323;-65
2022/01/01 05:57:24;;;;;;;2.90;2.30;;;;;;;9.05;90.92;100304.76;87861;1283;89073;-64
2022/01/01 05:59:30;;;;;;;3.50;2.10;;;;;;;9.05;90.85;100303.62;87802;1283;94918;-63
2022/01/01 06:01:38;;;;;;;2.90;2.00;;;;;;;9.04;90.85;100305.92;87856;1282;80588;-66
2022/01/01 06:03:47;;;;;;;2.90;1.90;;;;;;;9.05;90.90;100307.42;87831;1282;80648;-66
2022/01/01 06:05:56;;;;;;;2.50;2.00;;;;;;;9.05;90.93;100303.45;87835;1282;100485;-66
2022/01/01 06:08:05;;;;;;;3.20;2.10;;;;;;;9.08;90.87;100304.29;87793;1283;88029;-64
2022/01/01 06:10:12;;;;;;;2.90;2.00;;;;;;;9.14;90.83;100306.54;87819;1283;95673;-65
2022/01/01 06:12:21;;;;;;;3.20;2.20;;;;;;;9.15;90.74;100316.23;87850;1283;77919;-63
2022/01/01 06:14:27;;;;;;;2.50;1.90;;;;;;;9.08;90.71;100317.45;87849;1283;82395;-63
2022/01/01 06:16:32;;;;;;;2.50;1.90;;;;;;;8.98;90.68;100311.31;87798;1282;98848;-62
2022/01/01 06:18:38;;;;;;;2.70;1.60;;;;;;;8.96;90.76;100314.96;87854;1282;89317;-63
2022/01/01 06:20:44;;;;;;;2.00;1.30;;;;;;;8.97;90.59;100319.33;87796;1283;93636;-64
2022/01/01 06:22:50;;;;;;;1.90;1.40;;;;;;;8.93;90.45;100325.20;87838;1283;80471;-66
2022/01/01 06:24:56;;;;;;;2.20;1.30;;;;;;;8.83;90.52;100329.14;87866;1283;80099;-66
2022/01/01 06:27:06;;;;;;;2.10;1.30;;;;;;;8.82;90.51;100327.30;87856;1283;99955;-63
2022/01/01 06:29:14;;;;;;;2.40;1.70;;;;;;;8.85;90.62;100333.92;87842;1283;87751;-63
2022/01/01 06:31:21;;;;;;;2.30;1.90;;;;;;;8.88;90.62;100330.92;87834;1283;94370;-65
2022/01/01 06:33:29;;;;;;;3.60;2.10;;;;;;;8.91;90.51;100334.91;87816;1283;80359;-64
2022/01/01 06:35:35;;;;;;;3.10;2.30;;;;;;;8.94;90.37;100338.49;87849;1283;82805;-64
2022/01/01 06:37:41;;;;;;;2.70;2.20;;;;;;;8.93;90.36;100344.23;87793;1283;99274;-66
2022/01/01 06:39:47;;;;;;;3.60;2.50;;;;;;;8.86;90.20;100342.66;87825;1283;88906;-66
2022/01/01 06:41:52;;;;;;;2.30;2.00;;;;;;;8.81;90.20;100347.58;87853;1283;95438;-66
2022/01/01 06:44:01;;;;;;;2.50;2.00;;;;;;;8.78;90.26;100346.48;87842;1283;79115;-68
2022/01/01 06:46:07;;;;;;;2.70;2.10;;;;;;;8.79;90.19;100348.84;87841;1283;80026;-67
2022/01/01 06:48:16;;;;;;;3.80;3.00;;;;;;;8.78;90.28;100343.63;87843;1283;99457;-67
2022/01/01 06:50:25;;;;;;;2.30;1.70;;;;;;;8.79;90.29;100345.34;87853;1283;86872;-67
2022/01/01 06:52:31;;;;;;;4.00;2.30;;;;;;;8.85;90.33;100344.75;87838;1283;94422;-68
2022/01/01 06:54:37;;;;;;;4.20;2.20;;;;;;;8.92;90.32;100343.83;87836;1283;79928;-68
2022/01/01 06:56:46;;;;;;;3.70;2.70;;;;;;;8.95;90.23;100349.05;87858;1282;82901;-68
2022/01/01 06:58:51;;;;;;;4.20;2.90;;;;;;;8.90;90.22;100350.45;87876;1283;99348;-67
2022/01/01 07:01:00;;;;;;;3.60;2.50;;;;;;;8.84;90.20;100360.29;87629;1284;87239;-68
2022/01/01 07:03:06;;;;;;;4.10;2.70;;;;;;;8.83;90.31;100363.48;87839;1283;94399;-67
2022/01/01 07:05:13;;;;;;;4.20;2.40;;;;;;;8.84;90.18;100371.59;87834;1283;83074;-68
2022/01/01 07:07:18;;;;;;;4.60;3.40;;;;;;;8.87;90.14;100371.48;87823;1283;82691;-67
2022/01/01 07:09:27;;;;;;;3.20;2.20;;;;;;;8.88;90.12;100377.46;87847;1283;101125;-67
2022/01/01 07:11:36;;;;;;;3.50;2.70;;;;;;;8.91;90.09;100384.48;87835;1283;89031;-67
2022/01/01 07:13:44;;;;;;;3.20;2.70;;;;;;;8.87;90.12;100382.80;87846;1283;96083;-67
2022/01/01 07:15:50;;;;;;;2.60;1.90;;;;;;;8.87;90.15;100381.98;87878;1283;78651;-68
2022/01/01 07:17:55;;;;;;;2.90;2.10;;;;;;;8.85;90.28;100381.19;87880;1283;80009;-67
2022/01/01 07:20:05;;;;;;;3.00;2.00;;;;;;;8.90;90.22;100378.69;87847;1283;100377;-67
2022/01/01 07:22:11;;;;;;;2.70;1.90;;;;;;;8.93;90.17;100384.80;87849;1283;88910;-65
2022/01/01 07:24:17;;;;;;;2.90;2.20;;;;;;;8.95;90.15;100383.71;87818;1283;94642;-65
2022/01/01 07:26:26;;;;;;;3.30;2.20;;;;;;;8.95;90.13;100386.84;87841;1283;80044;-67
2022/01/01 07:28:31;;;;;;;3.40;2.30;;;;;;;8.95;90.20;100385.13;87881;1283;81000;-67
2022/01/01 07:30:37;;;;;;;3.00;2.00;;;;;;;8.95;90.17;100388.02;87820;1282;99456;-66
2022/01/01 07:32:48;;;;;;;2.80;1.90;;;;;;;9.03;90.13;100388.10;87824;1283;88201;-66
2022/01/01 07:34:55;;;;;;;2.90;2.10;;;;;;;9.03;90.11;100386.45;87513;1285;93750;-67
2022/01/01 07:37:01;;;;;;;2.50;1.90;;;;;;;9.00;89.83;100384.85;87607;1284;78573;-64
2022/01/01 07:39:10;;;;;;;3.70;1.90;;;;;;;9.04;89.86;100385.34;87855;1283;80696;-67
2022/01/01 07:41:15;;;;;;;2.90;1.70;;;;;;;9.00;89.80;100386.10;87848;1283;98695;-68
2022/01/01 07:43:26;;;;;;;4.50;1.80;;;;;;;8.95;89.85;100391.95;87839;1283;87999;-66
2022/01/01 07:45:31;;;;;;;2.80;1.90;;;;;;;8.96;89.91;100396.46;87842;1283;94387;-67
2022/01/01 07:47:40;;;;;;;2.40;1.70;;;;;;;9.03;89.87;100397.45;87782;1283;82170;-68
2022/01/01 07:49:49;;;;;;;2.80;1.80;;;;;;;9.10;89.85;100395.73;87873;1283;81945;-67
2022/01/01 07:51:58;;;;;;;4.40;2.40;;;;;;;9.12;89.93;100399.96;87858;1283;99874;-65
2022/01/01 07:54:04;;;;;;;3.00;2.20;;;;;;;9.12;89.90;100401.33;87835;1283;89716;-66
2022/01/01 07:56:12;;;;;;;4.50;2.40;;;;;;;9.13;90.01;100408.48;87844;1283;95453;-67
2022/01/01 07:58:18;;;;;;;2.50;1.70;;;;;;;9.24;89.94;100407.52;87820;1281;81490;-67
2022/01/01 08:00:27;;;;;;;2.80;2.00;;;;;;;9.39;89.96;100403.16;87819;1283;82802;-68
2022/01/01 08:02:32;;;;;;;2.50;1.70;;;;;;;9.68;89.90;100409.55;87827;1283;97085;-67
2022/01/01 08:04:38;;;;;;;3.30;1.70;;;;;;;9.90;89.71;100411.77;87816;1283;87990;-69
2022/01/01 08:06:44;;;;;;;1.90;1.40;;;;;;;9.93;89.35;100420.68;87819;1283;95336;-69
2022/01/01 08:08:49;;;;;;;2.60;1.50;;;;;;;9.83;89.32;100427.55;87833;1283;79301;-68
2022/01/01 08:10:56;;;;;;;2.40;1.60;;;;;;;9.80;89.34;100424.98;87675;1283;83687;-68
2022/01/01 08:13:07;;;;;;;2.50;1.70;;;;;;;9.78;89.24;100423.48;87710;1284;100148;-69
2022/01/01 08:15:13;;;;;;;4.10;1.90;;;;;;;9.70;89.05;100427.88;87681;1283;88692;-69
2022/01/01 08:17:18;;;;;;;3.40;2.30;;;;;;;9.61;89.00;100428.90;87678;1284;95626;-65
2022/01/01 08:19:25;;;;;;;2.80;1.90;;;;;;;9.61;89.06;100427.39;87671;1284;81375;-67
2022/01/01 08:21:30;;;;;;;3.00;1.90;;;;;;;9.62;88.98;100425.46;87694;1284;80138;-67
2022/01/01 08:23:37;;;;;;;2.80;2.00;;;;;;;9.54;88.98;100427.98;87680;1284;97959;-67
2022/01/01 08:25:43;;;;;;;3.30;1.80;;;;;;;9.49;89.15;100424.42;87659;1284;89627;-67
2022/01/01 08:27:51;;;;;;;3.10;1.80;;;;;;;9.50;89.14;100430.65;87677;1283;95086;-68
2022/01/01 08:29:57;;;;;;;3.70;1.80;;;;;;;9.57;89.08;100432.21;87687;1283;78230;-67
2022/01/01 08:32:04;;;;;;;3.60;1.80;;;;;;;9.63;89.02;100440.17;87709;1283;82723;-67
2022/01/01 08:34:10;;;;;;;3.50;1.80;;;;;;;9.67;89.06;100442.64;87839;1283;100501;-68
2022/01/01 08:36:17;;;;;;;3.00;1.70;;;;;;;9.66;88.97;100441.27;87840;1283;89185;-68
2022/01/01 08:38:23;;;;;;;3.70;1.80;;;;;;;9.69;88.84;100443.66;87665;1283;95169;-67
2022/01/01 08:40:33;;;;;;;3.30;2.00;;;;;;;9.67;88.77;100445.63;87833;1283;80618;-68
2022/01/01 08:42:39;;;;;;;3.20;1.60;;;;;;;9.68;88.76;100445.77;87739;1283;83189;-68
2022/01/01 08:44:46;;;;;;;2.70;1.60;;;;;;;9.72;88.78;100449.41;87846;1283;99319;-67
2022/01/01 08:46:52;;;;;;;1.80;1.30;;;;;;;9.75;88.61;100449.58;87843;1283;86868;-67
2022/01/01 08:49:02;;;;;;;3.50;1.90;;;;;;;9.76;88.68;100449.27;87826;1283;94039;-68
2022/01/01 08:51:17;;;;;;;3.10;2.00;;;;;;;9.77;88.71;100450.06;87833;1283;79029;-68
2022/01/01 08:53:26;;;;;;;2.70;2.00;;;;;;;9.80;88.72;100446.23;87842;1283;80550;-68
2022/01/01 08:55:35;;;;;;;2.80;2.30;;;;;;;9.81;88.69;100448.48;87834;1283;99066;-66
2022/01/01 08:57:44;;;;;;;3.40;3.10;;;;;;;9.81;88.67;100446.86;87879;1283;89222;-67
2022/01/01 08:59:53;;;;;;;3.20;2.70;;;;;;;9.78;88.59;100448.64;87823;1283;94669;-66
2022/01/01 09:02:03;;;;;;;3.50;2.30;;;;;;;9.75;88.62;100450.64;87826;1283;80155;-67
2022/01/01 09:04:09;;;;;;;2.90;2.30;;;;;;;9.72;88.63;100448.36;87835;1283;82842;-67
2022/01/01 09:06:16;;;;;;;2.90;2.40;;;;;;;9.73;88.68;100446.56;87849;1283;100834;-68
2022/01/01 09:08:25;;;;;;;2.60;2.30;;;;;;;9.77;88.57;100445.91;87857;1283;87745;-68
2022/01/01 09:10:31;;;;;;;3.50;3.00;;;;;;;9.72;88.70;100446.84;87798;1283;95815;-67
2022/01/01 09:12:37;;;;;;;4.80;3.40;;;;;;;9.72;88.79;100448.25;87859;1283;79903;-66
2022/01/01 09:14:44;;;;;;;4.10;3.70;;;;;;;9.75;88.82;100448.09;87890;1283;80765;-67
2022/01/01 09:16:53;;;;;;;4.70;4.10;;;;;;;9.79;88.78;100443.70;87837;1283;99033;-69
2022/01/01 09:19:03;;;;;;;4.50;3.70;;;;;;;9.83;88.75;100442.70;87844;1283;86273;-68
2022/01/01 09:21:14;;;;;;;3.80;2.80;;;;;;;9.84;88.66;100443.45;87841;1283;94700;-67
2022/01/01 09:23:23;;;;;;;3.50;3.20;;;;;;;9.89;88.63;100443.32;87854;1283;82825;-69
2022/01/01 09:25:32;;;;;;;4.80;2.60;;;;;;;9.94;88.65;100443.28;87857;1283;83650;-68
2022/01/01 09:27:38;;;;;;;3.30;3.00;;;;;;;10.00;88.57;100443.84;87854;1283;98093;-68
2022/01/01 09:29:43;;;;;;;4.40;4.00;;;;;;;10.04;88.57;100449.26;87850;1283;89738;-68
2022/01/01 09:31:49;;;;;;;4.20;3.80;;;;;;;10.02;88.55;100453.21;87801;1283;94338;-64
2022/01/01 09:34:03;;;;;;;6.40;5.00;;;;;;;10.02;88.58;100447.49;87851;1283;81125;-67
2022/01/01 09:36:14;;;;;;;5.80;4.80;;;;;;;10.01;88.62;100450.16;87839;1283;83781;-66
2022/01/01 09:38:20;;;;;;;4.60;4.20;;;;;;;10.02;88.62;100446.05;87831;1283;100427;-68
2022/01/01 09:40:30;;;;;;;4.10;3.70;;;;;;;10.02;88.52;100447.73;87836;1283;88595;-68
2022/01/01 09:42:36;;;;;;;5.10;2.90;;;;;;;10.03;88.52;100455.67;87846;1283;96426;-67
2022/01/01 09:44:43;;;;;;;3.10;2.80;;;;;;;10.03;88.54;100456.09;87887;1283;80921;-67
2022/01/01 09:46:51;;;;;;;3.60;2.80;;;;;;;10.03;88.57;100461.78;87810;1283;83053;-68
2022/01/01 09:48:57;;;;;;;3.90;3.50;;;;;;;10.01;88.52;100457.23;87834;1283;99556;-67
2022/01/01 09:51:04;;;;;;;4.50;4.10;;;;;;;10.04;88.63;100454.48;87874;1282;88387;-66
2022/01/01 09:53:10;;;;;;;4.70;4.20;;;;;;;10.05;88.67;100448.05;87858;1283;94519;-66
2022/01/01 09:55:16;;;;;;;4.70;4.20;;;;;;;10.12;88.70;100449.98;87828;1283;78362;-66
2022/01/01 09:57:22;;;;;;;4.00;3.70;;;;;;;10.11;88.70;100445.61;87849;1283;82806;-67
2022/01/01 09:59:28;;;;;;;4.10;3.40;;;;;;;10.14;88.75;100449.92;87821;1283;99400;-66